createdAt,value
2023-05-05T00:01:04.777Z,10.22
2023-05-05T00:03:37.560Z,10.21
2023-05-05T00:06:07.213Z,11.69
2023-05-05T00:08:35.927Z,14.08
2023-05-05T00:11:04.596Z,15.55
2023-05-05T00:13:33.274Z,15.28
2023-05-05T00:16:01.903Z,14.32
2023-05-05T00:18:30.656Z,13.56
2023-05-05T00:20:59.416Z,12.99
2023-05-05T00:23:28.076Z,12.55
2023-05-05T00:25:56.725Z,12.19
2023-05-05T00:28:25.736Z,11.89
2023-05-05T00:30:54.432Z,11.64
2023-05-05T00:33:23.659Z,11.41
2023-05-05T00:35:52.361Z,11.20
2023-05-05T00:38:21.016Z,11.01
2023-05-05T00:40:49.789Z,10.85
2023-05-05T00:43:18.457Z,10.73
2023-05-05T00:45:48.137Z,10.64
2023-05-05T00:48:17.940Z,10.56
2023-05-05T00:50:46.606Z,10.51
2023-05-05T00:53:15.527Z,10.46
2023-05-05T00:55:44.165Z,10.42
2023-05-05T00:58:13.620Z,10.39
2023-05-05T01:00:42.603Z,10.38
2023-05-05T01:03:13.156Z,10.38
2023-05-05T01:06:10.173Z,10.37
2023-05-05T01:09:06.768Z,10.39
2023-05-05T01:11:44.559Z,10.41
2023-05-05T01:14:18.606Z,10.45
2023-05-05T01:17:01.376Z,10.48
2023-05-05T01:19:46.959Z,10.51
2023-05-05T01:22:19.941Z,10.54
2023-05-05T01:25:07.217Z,10.56
2023-05-05T01:27:59.465Z,10.89
2023-05-05T01:30:36.715Z,13.45
2023-05-05T01:33:08.567Z,15.51
2023-05-05T01:35:43.747Z,15.87
2023-05-05T01:38:21.261Z,14.93
2023-05-05T01:41:01.855Z,14.05
2023-05-05T01:43:34.636Z,13.43
2023-05-05T01:46:04.978Z,12.99
2023-05-05T01:48:34.136Z,12.62
2023-05-05T01:51:04.342Z,12.32
2023-05-05T01:53:34.407Z,12.06
2023-05-05T01:56:04.190Z,11.83
2023-05-05T01:58:34.324Z,11.65
2023-05-05T02:01:04.165Z,11.48
2023-05-05T02:03:36.267Z,11.35
2023-05-05T02:06:07.434Z,11.23
2023-05-05T02:08:38.587Z,11.12
2023-05-05T02:11:09.984Z,11.03
2023-05-05T02:13:42.092Z,10.95
2023-05-05T02:16:12.989Z,10.87
2023-05-05T02:18:42.565Z,11.26
2023-05-05T02:21:11.307Z,13.48
2023-05-05T02:23:40.423Z,15.51
2023-05-05T02:26:12.114Z,16.13
2023-05-05T02:28:51.558Z,15.18
2023-05-05T02:31:23.982Z,14.12
2023-05-05T02:33:55.054Z,13.38
2023-05-05T02:36:28.591Z,12.85
2023-05-05T02:39:02.347Z,12.44
2023-05-05T02:41:34.717Z,12.09
2023-05-05T02:44:05.181Z,11.76
2023-05-05T02:46:33.965Z,11.48
2023-05-05T02:49:02.667Z,11.25
2023-05-05T02:51:32.660Z,11.05
2023-05-05T02:54:01.763Z,10.87
2023-05-05T02:56:51.046Z,10.72
2023-05-05T02:59:49.575Z,11.11
2023-05-05T03:02:27.432Z,13.77
2023-05-05T03:05:23.911Z,15.32
2023-05-05T03:08:01.773Z,14.65
2023-05-05T03:10:36.431Z,13.61
2023-05-05T03:13:09.314Z,12.83
2023-05-05T03:15:43.550Z,12.27
2023-05-05T03:18:15.583Z,11.82
2023-05-05T03:20:44.367Z,11.44
2023-05-05T03:23:18.368Z,11.13
2023-05-05T03:25:49.208Z,10.86
2023-05-05T03:28:18.065Z,10.64
2023-05-05T03:30:46.774Z,10.46
2023-05-05T03:33:16.184Z,10.31
2023-05-05T03:35:45.055Z,10.17
2023-05-05T03:38:13.718Z,10.05
2023-05-05T03:40:44.678Z,9.93
2023-05-05T03:43:13.762Z,10.32
2023-05-05T03:45:42.537Z,12.64
2023-05-05T03:48:11.431Z,14.51
2023-05-05T03:50:40.640Z,14.55
2023-05-05T03:53:09.305Z,13.54
2023-05-05T03:55:37.956Z,12.68
2023-05-05T03:58:07.083Z,12.06
2023-05-05T04:00:35.781Z,11.59
2023-05-05T04:03:04.553Z,11.25
2023-05-05T04:05:33.372Z,10.95
2023-05-05T04:08:03.480Z,10.71
2023-05-05T04:10:32.299Z,10.51
2023-05-05T04:13:01.065Z,10.35
2023-05-05T04:15:30.133Z,10.21
2023-05-05T04:17:58.882Z,10.11
2023-05-05T04:20:27.616Z,10.02
2023-05-05T04:22:56.353Z,9.94
2023-05-05T04:25:25.086Z,10.33
2023-05-05T04:27:53.811Z,12.60
2023-05-05T04:30:22.486Z,14.63
2023-05-05T04:32:51.172Z,15.01
2023-05-05T04:35:19.862Z,14.05
2023-05-05T04:37:48.721Z,13.14
2023-05-05T04:40:17.462Z,12.47
2023-05-05T04:42:46.373Z,11.97
2023-05-05T04:45:15.161Z,11.60
2023-05-05T04:47:43.964Z,11.29
2023-05-05T04:50:13.565Z,11.05
2023-05-05T04:52:42.251Z,10.87
2023-05-05T04:55:11.602Z,10.74
2023-05-05T04:57:40.406Z,10.65
2023-05-05T05:00:09.921Z,10.59
2023-05-05T05:02:38.911Z,10.55
2023-05-05T05:05:08.201Z,10.52
2023-05-05T05:07:36.851Z,10.96
2023-05-05T05:10:06.239Z,13.17
2023-05-05T05:12:35.533Z,15.18
2023-05-05T05:15:04.859Z,15.70
2023-05-05T05:17:33.546Z,14.87
2023-05-05T05:20:05.021Z,13.98
2023-05-05T05:22:34.949Z,13.36
2023-05-05T05:25:03.871Z,12.94
2023-05-05T05:27:32.568Z,12.63
2023-05-05T05:30:01.306Z,12.39
2023-05-05T05:32:29.999Z,12.19
2023-05-05T05:34:58.742Z,12.02
2023-05-05T05:37:31.076Z,11.91
2023-05-05T05:39:59.828Z,11.83
2023-05-05T05:42:28.516Z,11.73
2023-05-05T05:44:58.784Z,11.64
2023-05-05T05:47:28.136Z,11.56
2023-05-05T05:49:56.831Z,11.52
2023-05-05T05:52:25.482Z,11.52
2023-05-05T05:54:54.126Z,11.54
2023-05-05T05:57:24.620Z,11.56
2023-05-05T05:59:54.110Z,11.59
2023-05-05T06:02:22.870Z,11.61
2023-05-05T06:04:52.221Z,11.64
2023-05-05T06:07:20.970Z,11.67
2023-05-05T06:09:49.684Z,11.73
2023-05-05T06:12:18.383Z,11.79
2023-05-05T06:14:47.011Z,11.85
2023-05-05T06:17:15.685Z,11.90
2023-05-05T06:19:44.402Z,11.94
2023-05-05T06:22:13.067Z,11.95
2023-05-05T06:24:41.715Z,11.97
2023-05-05T06:27:10.365Z,11.99
2023-05-05T06:29:39.002Z,12.00
2023-05-05T06:32:08.503Z,12.03
2023-05-05T06:34:37.178Z,12.08
2023-05-05T06:37:05.806Z,12.14
2023-05-05T06:39:34.442Z,12.20
2023-05-05T06:42:04.116Z,12.31
2023-05-05T06:44:34.557Z,12.41
2023-05-05T06:47:04.036Z,12.53
2023-05-05T06:49:32.724Z,12.63
2023-05-05T06:52:01.700Z,12.70
2023-05-05T06:54:30.381Z,12.75
2023-05-05T06:56:59.674Z,12.82
2023-05-05T06:59:28.608Z,12.87
2023-05-05T07:01:57.394Z,12.92
2023-05-05T07:04:26.899Z,12.98
2023-05-05T07:06:55.710Z,13.07
2023-05-05T07:09:24.535Z,13.11
2023-05-05T07:11:53.248Z,13.12
2023-05-05T07:14:24.248Z,13.12
2023-05-05T07:16:53.276Z,13.17
2023-05-05T07:19:22.337Z,13.25
2023-05-05T07:21:52.075Z,13.36
2023-05-05T07:24:23.324Z,13.46
2023-05-05T07:26:52.119Z,13.51
2023-05-05T07:29:20.818Z,13.59
2023-05-05T07:31:49.513Z,13.69
2023-05-05T07:34:18.204Z,13.82
2023-05-05T07:36:46.907Z,13.95
2023-05-05T07:39:15.815Z,14.03
2023-05-05T07:41:44.481Z,14.04
2023-05-05T07:44:13.191Z,14.06
2023-05-05T07:46:41.902Z,14.12
2023-05-05T07:49:10.699Z,14.18
2023-05-05T07:51:39.457Z,14.21
2023-05-05T07:54:08.537Z,14.20
2023-05-05T07:56:37.231Z,14.17
2023-05-05T07:59:05.907Z,14.16
2023-05-05T08:01:34.644Z,14.16
2023-05-05T08:04:03.386Z,14.21
2023-05-05T08:06:32.517Z,14.26
2023-05-05T08:09:01.861Z,14.25
2023-05-05T08:11:30.571Z,14.26
2023-05-05T08:13:59.251Z,14.25
2023-05-05T08:16:28.046Z,14.24
2023-05-05T08:18:56.866Z,14.28
2023-05-05T08:21:25.573Z,14.36
2023-05-05T08:23:54.225Z,14.48
2023-05-05T08:26:22.957Z,14.63
2023-05-05T08:28:55.078Z,14.77
2023-05-05T08:31:23.818Z,14.94
2023-05-05T08:33:52.504Z,15.12
2023-05-05T08:36:21.522Z,15.26
2023-05-05T08:38:50.222Z,15.38
2023-05-05T08:41:19.821Z,15.48
2023-05-05T08:43:49.349Z,15.58
2023-05-05T08:46:18.050Z,15.71
2023-05-05T08:48:49.488Z,15.82
2023-05-05T08:51:19.912Z,15.99
2023-05-05T08:54:03.849Z,16.16
2023-05-05T08:56:40.757Z,16.29
2023-05-05T08:59:13.386Z,16.31
2023-05-05T09:01:42.804Z,16.32
2023-05-05T09:04:11.597Z,16.37
2023-05-05T09:06:40.469Z,16.42
2023-05-05T09:09:09.265Z,16.47
2023-05-05T09:11:39.248Z,16.52
2023-05-05T09:16:54.018Z,16.76
2023-05-05T09:19:22.698Z,16.86
2023-05-05T09:21:51.556Z,16.90
2023-05-05T09:24:20.348Z,16.89
2023-05-05T09:26:49.860Z,16.88
2023-05-05T09:29:23.161Z,17.00
2023-05-05T09:32:05.776Z,17.08
2023-05-05T09:34:36.171Z,17.21
2023-05-05T09:37:06.195Z,17.37
2023-05-05T09:39:35.073Z,17.55
2023-05-05T09:42:03.856Z,17.69
2023-05-05T09:44:37.253Z,17.87
2023-05-05T09:47:14.807Z,18.11
2023-05-05T09:49:58.839Z,18.31
2023-05-05T09:52:27.660Z,18.33
2023-05-05T09:54:57.283Z,18.35
2023-05-05T09:57:28.332Z,18.47
2023-05-05T09:59:58.969Z,18.62
2023-05-05T10:02:39.157Z,18.71
2023-05-05T10:05:11.733Z,18.82
2023-05-05T10:07:42.995Z,18.95
2023-05-05T10:10:14.106Z,19.10
2023-05-05T10:12:43.120Z,19.28
2023-05-05T10:15:12.134Z,19.40
2023-05-05T10:18:06.123Z,19.42
2023-05-05T10:20:38.791Z,19.30
2023-05-05T10:23:10.624Z,19.19
2023-05-05T10:25:43.950Z,19.16
2023-05-05T10:28:18.844Z,19.18
2023-05-05T10:30:51.320Z,19.23
2023-05-05T10:33:32.092Z,19.35
2023-05-05T10:36:05.310Z,19.58
2023-05-05T10:38:34.411Z,19.87
2023-05-05T10:41:03.472Z,20.03
2023-05-05T10:43:33.423Z,20.19
2023-05-05T10:46:02.761Z,20.37
2023-05-05T10:48:44.848Z,20.54
2023-05-05T10:51:40.016Z,20.70
2023-05-05T10:54:21.358Z,20.87
2023-05-05T10:56:51.495Z,21.06
2023-05-05T10:59:37.887Z,21.22
2023-05-05T11:02:24.183Z,21.30
2023-05-05T11:05:16.884Z,21.33
2023-05-05T11:07:47.576Z,21.35
2023-05-05T11:10:20.592Z,21.37
2023-05-05T11:12:57.805Z,21.44
2023-05-05T11:15:26.793Z,21.52
2023-05-05T11:18:06.800Z,21.60
2023-05-05T11:20:37.129Z,21.65
2023-05-05T11:23:05.787Z,21.66
2023-05-05T11:25:34.467Z,21.73
2023-05-05T11:28:11.959Z,21.78
2023-05-05T11:30:59.485Z,21.73
2023-05-05T11:33:32.604Z,21.70
2023-05-05T11:36:08.752Z,21.74
2023-05-05T11:38:46.683Z,21.84
2023-05-05T11:41:38.399Z,21.95
2023-05-05T11:44:18.221Z,22.11
2023-05-05T11:46:53.061Z,22.20
2023-05-05T11:49:28.490Z,22.19
2023-05-05T11:52:02.020Z,22.12
2023-05-05T11:54:31.862Z,21.96
2023-05-05T11:57:07.201Z,21.86
2023-05-05T11:59:49.765Z,21.82
2023-05-05T12:02:19.929Z,21.86
2023-05-05T12:04:50.527Z,21.90
2023-05-05T12:07:21.343Z,21.94
2023-05-05T12:09:50.768Z,21.93
2023-05-05T12:12:20.278Z,21.96
2023-05-05T12:14:54.664Z,22.07
2023-05-05T12:17:23.474Z,22.17
2023-05-05T12:19:54.085Z,22.19
2023-05-05T12:22:26.022Z,22.14
2023-05-05T12:25:06.546Z,22.16
2023-05-05T12:27:35.868Z,22.08
2023-05-05T12:30:12.685Z,21.90
2023-05-05T12:32:41.753Z,21.85
2023-05-05T12:35:11.234Z,21.87
2023-05-05T12:37:40.729Z,21.88
2023-05-05T12:40:48.891Z,21.94
2023-05-05T12:43:43.990Z,21.86
2023-05-05T12:46:13.734Z,21.75
2023-05-05T12:48:48.114Z,21.81
2023-05-05T12:51:23.359Z,21.75
2023-05-05T12:54:03.297Z,21.77
2023-05-05T12:56:36.533Z,21.76
2023-05-05T12:59:09.798Z,21.66
2023-05-05T13:01:50.975Z,21.61
2023-05-05T13:04:21.431Z,21.66
2023-05-05T13:07:07.838Z,21.61
2023-05-05T13:09:36.596Z,21.65
2023-05-05T13:12:07.195Z,21.78
2023-05-05T13:14:36.519Z,21.80
2023-05-05T13:17:05.415Z,21.71
2023-05-05T13:19:35.903Z,21.61
2023-05-05T13:22:04.557Z,21.60
2023-05-05T13:24:46.422Z,21.63
2023-05-05T13:27:16.411Z,21.55
2023-05-05T13:29:45.196Z,21.39
2023-05-05T13:32:13.924Z,21.24
2023-05-05T13:34:44.171Z,21.20
2023-05-05T13:37:12.858Z,21.13
2023-05-05T13:39:41.566Z,21.05
2023-05-05T13:42:10.359Z,20.95
2023-05-05T13:44:39.476Z,20.68
2023-05-05T13:47:08.655Z,20.44
2023-05-05T13:49:37.396Z,20.29
2023-05-05T13:52:06.086Z,20.22
2023-05-05T13:54:34.775Z,20.20
2023-05-05T13:57:03.524Z,20.21
2023-05-05T13:59:32.256Z,20.21
2023-05-05T14:02:01.284Z,20.26
2023-05-05T14:04:30.098Z,20.29
2023-05-05T14:06:58.931Z,20.35
2023-05-05T14:09:27.622Z,20.42
2023-05-05T14:11:56.272Z,20.43
2023-05-05T14:14:24.924Z,20.45
2023-05-05T14:16:53.618Z,20.43
2023-05-05T14:19:22.346Z,20.35
2023-05-05T14:21:51.156Z,20.24
2023-05-05T14:24:19.834Z,20.16
2023-05-05T14:26:49.158Z,20.04
2023-05-05T14:29:17.892Z,19.91
2023-05-05T14:31:46.674Z,19.84
2023-05-05T14:34:15.324Z,19.82
2023-05-05T14:36:43.999Z,19.83
2023-05-05T14:39:12.687Z,19.82
2023-05-05T14:41:41.364Z,19.73
2023-05-05T14:44:09.983Z,19.65
2023-05-05T14:46:38.668Z,19.57
2023-05-05T14:49:07.331Z,19.50
2023-05-05T14:51:35.997Z,19.42
2023-05-05T14:54:09.337Z,19.34
2023-05-05T14:56:43.101Z,19.28
2023-05-05T14:59:11.758Z,19.20
2023-05-05T15:01:40.830Z,19.11
2023-05-05T15:04:09.857Z,19.05
2023-05-05T15:06:38.601Z,19.01
2023-05-05T15:09:07.304Z,18.90
2023-05-05T15:11:36.025Z,18.81
2023-05-05T15:14:04.681Z,18.75
2023-05-05T15:16:35.158Z,18.65
2023-05-05T15:19:04.138Z,18.55
2023-05-05T15:21:32.810Z,18.46
2023-05-05T15:24:01.491Z,18.39
2023-05-05T15:26:30.197Z,18.37
2023-05-05T15:28:58.864Z,18.34
2023-05-05T15:31:27.545Z,18.22
2023-05-05T15:33:56.395Z,18.10
2023-05-05T15:36:25.101Z,18.07
2023-05-05T15:38:53.768Z,18.05
2023-05-05T15:41:22.855Z,17.97
2023-05-05T15:43:51.499Z,17.83
2023-05-05T15:46:20.269Z,17.71
2023-05-05T15:48:48.939Z,17.59
2023-05-05T15:51:17.627Z,17.47
2023-05-05T15:53:46.607Z,17.36
2023-05-05T15:56:15.258Z,17.28
2023-05-05T15:58:43.989Z,17.16
2023-05-05T16:01:12.706Z,17.09
2023-05-05T16:03:41.415Z,17.07
2023-05-05T16:06:12.293Z,17.01
2023-05-05T16:08:41.306Z,16.92
2023-05-05T16:11:09.984Z,16.84
2023-05-05T16:13:39.245Z,16.78
2023-05-05T16:16:08.028Z,16.68
2023-05-05T16:18:36.740Z,16.60
2023-05-05T16:21:05.476Z,16.53
2023-05-05T16:23:34.242Z,16.47
2023-05-05T16:26:04.071Z,16.36
2023-05-05T16:28:34.274Z,16.26
2023-05-05T16:31:03.168Z,16.16
2023-05-05T16:33:31.852Z,16.12
2023-05-05T16:36:00.588Z,16.07
2023-05-05T16:38:29.334Z,16.02
2023-05-05T16:40:58.044Z,15.99
2023-05-05T16:43:26.739Z,15.94
2023-05-05T16:45:55.390Z,15.89
2023-05-05T16:48:24.377Z,15.84
2023-05-05T16:50:53.001Z,15.79
2023-05-05T16:53:21.736Z,15.76
2023-05-05T16:55:54.573Z,15.73
2023-05-05T16:58:23.643Z,15.67
2023-05-05T17:00:52.925Z,15.60
2023-05-05T17:03:22.623Z,15.55
2023-05-05T17:05:53.085Z,15.50
2023-05-05T17:08:21.968Z,15.44
2023-05-05T17:10:50.616Z,15.37
2023-05-05T17:13:19.425Z,15.29
2023-05-05T17:15:48.346Z,15.22
2023-05-05T17:18:20.105Z,15.15
2023-05-05T17:20:49.913Z,15.10
2023-05-05T17:23:21.082Z,15.02
2023-05-05T17:25:49.732Z,14.96
2023-05-05T17:28:18.462Z,14.90
2023-05-05T17:30:47.127Z,14.86
2023-05-05T17:33:18.387Z,14.79
2023-05-05T17:35:47.875Z,14.73
2023-05-05T17:38:17.597Z,14.69
2023-05-05T17:40:46.681Z,14.63
2023-05-05T17:43:15.409Z,14.58
2023-05-05T17:45:44.150Z,14.52
2023-05-05T17:48:12.894Z,14.46
2023-05-05T17:50:43.391Z,14.39
2023-05-05T17:53:12.414Z,14.33
2023-05-05T17:55:45.263Z,14.26
2023-05-05T17:58:13.944Z,14.19
2023-05-05T18:00:42.599Z,14.13
2023-05-05T18:03:11.364Z,14.06
2023-05-05T18:05:40.101Z,14.00
2023-05-05T18:08:09.003Z,13.94
2023-05-05T18:10:37.746Z,13.87
2023-05-05T18:13:06.692Z,13.81
2023-05-05T18:15:35.376Z,13.74
2023-05-05T18:18:04.276Z,13.68
2023-05-05T18:20:32.963Z,13.64
2023-05-05T18:23:01.891Z,13.58
2023-05-05T18:25:30.614Z,13.54
2023-05-05T18:27:59.398Z,13.47
2023-05-05T18:30:28.169Z,13.42
2023-05-05T18:32:56.908Z,13.37
2023-05-05T18:35:26.079Z,13.31
2023-05-05T18:37:55.223Z,13.25
2023-05-05T18:40:23.940Z,13.21
2023-05-05T18:42:52.685Z,13.16
2023-05-05T18:45:21.573Z,13.11
2023-05-05T18:47:50.261Z,13.05
2023-05-05T18:50:19.018Z,13.00
2023-05-05T18:52:47.720Z,12.96
2023-05-05T18:55:16.418Z,12.92
2023-05-05T18:57:45.053Z,12.87
2023-05-05T19:00:14.108Z,12.83
2023-05-05T19:02:42.853Z,12.79
2023-05-05T19:05:11.688Z,12.74
2023-05-05T19:07:40.980Z,12.68
2023-05-05T19:10:10.269Z,12.63
2023-05-05T19:12:39.072Z,12.58
2023-05-05T19:15:08.554Z,12.53
2023-05-05T19:17:37.505Z,12.49
2023-05-05T19:20:06.669Z,12.45
2023-05-05T19:22:35.378Z,12.41
2023-05-05T19:25:04.348Z,12.38
2023-05-05T19:27:33.990Z,12.36
2023-05-05T19:30:06.379Z,12.33
2023-05-05T19:32:35.287Z,12.31
2023-05-05T19:35:06.768Z,12.28
2023-05-05T19:37:35.503Z,12.26
2023-05-05T19:40:04.863Z,12.24
2023-05-05T19:42:33.558Z,12.21
2023-05-05T19:45:02.267Z,12.19
2023-05-05T19:47:31.643Z,12.15
2023-05-05T19:50:00.393Z,12.13
2023-05-05T19:52:29.071Z,12.09
2023-05-05T19:54:59.144Z,12.06
2023-05-05T19:57:28.123Z,12.04
2023-05-05T19:59:56.770Z,12.00
2023-05-05T20:02:27.228Z,11.99
2023-05-05T20:04:56.207Z,11.96
2023-05-05T20:07:25.067Z,11.93
2023-05-05T20:09:53.838Z,11.91
2023-05-05T20:12:23.522Z,11.88
2023-05-05T20:14:52.228Z,11.86
2023-05-05T20:17:21.494Z,11.84
2023-05-05T20:19:50.599Z,11.81
2023-05-05T20:22:19.357Z,11.80
2023-05-05T20:24:48.164Z,11.78
2023-05-05T20:27:17.029Z,11.75
2023-05-05T20:29:45.698Z,11.72
2023-05-05T20:32:14.641Z,11.70
2023-05-05T20:34:43.325Z,11.68
2023-05-05T20:37:13.784Z,11.64
2023-05-05T20:39:43.804Z,11.61
2023-05-05T20:42:12.729Z,11.59
2023-05-05T20:44:42.166Z,11.56
2023-05-05T20:47:10.921Z,11.54
2023-05-05T20:49:39.719Z,11.51
2023-05-05T20:52:08.394Z,11.50
2023-05-05T20:54:37.167Z,11.47
2023-05-05T20:57:07.281Z,11.43
2023-05-05T20:59:36.014Z,11.40
2023-05-05T21:02:04.816Z,11.37
2023-05-05T21:04:33.790Z,11.35
2023-05-05T21:07:02.937Z,11.32
2023-05-05T21:09:31.734Z,11.30
2023-05-05T21:12:00.730Z,11.28
2023-05-05T21:14:29.684Z,11.25
2023-05-05T21:16:58.470Z,11.22
2023-05-05T21:19:27.267Z,11.21
2023-05-05T21:21:59.179Z,11.19
2023-05-05T21:24:28.353Z,11.18
2023-05-05T21:26:57.104Z,11.17
2023-05-05T21:29:25.952Z,11.14
2023-05-05T21:31:54.671Z,11.12
2023-05-05T21:34:23.476Z,11.12
2023-05-05T21:36:52.105Z,11.10
2023-05-05T21:39:20.759Z,11.08
2023-05-05T21:41:49.927Z,11.06
2023-05-05T21:44:18.735Z,11.05
2023-05-05T21:46:47.515Z,11.04
2023-05-05T21:49:17.689Z,11.01
2023-05-05T21:51:46.512Z,10.99
2023-05-05T21:54:15.328Z,10.98
2023-05-05T21:56:44.063Z,10.97
2023-05-05T21:59:13.903Z,10.95
2023-05-05T22:01:43.533Z,10.94
2023-05-05T22:04:12.259Z,10.92
2023-05-05T22:06:41.881Z,10.91
2023-05-05T22:09:10.598Z,10.91
2023-05-05T22:11:39.272Z,10.89
2023-05-05T22:14:07.922Z,10.87
2023-05-05T22:16:36.674Z,10.86
2023-05-05T22:19:05.411Z,10.84
2023-05-05T22:21:34.079Z,10.83
2023-05-05T22:24:02.785Z,10.81
2023-05-05T22:26:31.494Z,10.79
2023-05-05T22:29:00.200Z,10.78
2023-05-05T22:31:29.512Z,10.77
2023-05-05T22:33:58.395Z,10.76
2023-05-05T22:36:27.636Z,10.76
2023-05-05T22:38:56.365Z,10.76
2023-05-05T22:41:25.609Z,10.73
2023-05-05T22:43:54.313Z,10.71
2023-05-05T22:46:22.976Z,10.70
2023-05-05T22:48:52.899Z,10.69
2023-05-05T22:51:21.677Z,10.69
2023-05-05T22:53:51.085Z,10.68
2023-05-05T22:56:19.812Z,10.67
2023-05-05T22:58:48.542Z,10.67
2023-05-05T23:01:17.257Z,10.66
2023-05-05T23:03:45.929Z,10.65
2023-05-05T23:06:14.580Z,10.64
2023-05-05T23:08:43.309Z,10.64
2023-05-05T23:11:11.955Z,10.63
2023-05-05T23:13:40.753Z,10.62
2023-05-05T23:16:09.545Z,10.62
2023-05-05T23:18:38.781Z,10.61
2023-05-05T23:21:07.573Z,10.61
2023-05-05T23:23:36.383Z,10.60
2023-05-05T23:26:05.078Z,10.59
2023-05-05T23:28:33.716Z,10.59
2023-05-05T23:31:02.432Z,10.59
2023-05-05T23:33:31.363Z,10.58
2023-05-05T23:36:00.050Z,10.57
2023-05-05T23:38:28.818Z,10.57
2023-05-05T23:40:57.528Z,10.55
2023-05-05T23:43:26.147Z,10.54
2023-05-05T23:45:54.853Z,10.54
2023-05-05T23:48:24.005Z,10.52
2023-05-05T23:50:52.707Z,10.50
2023-05-05T23:53:21.600Z,10.48
2023-05-05T23:55:50.458Z,10.47
2023-05-05T23:58:19.110Z,10.46
